logo
Rechercher aéroport 
image banner adimage banner adimage banner ad
image banner ad

50CL - L A Co Sheriff Lakewood

Situé à Lakewood, United States

ICAO - 50CL, IATA -

Données fournies par Airmate  

Information générale

Coordonnées: N33°51'6" W118°7'58"
Élévation : 58 feet MSL.
Variation magnétique : 14° East
Voir autres Aéroports à California

Données opérationnelles

Special qualification required
Heure actuelle UTC:
Heure actuelle locale:
METAR: KLGB 011653Z VRB04KT 10SM OVC026 21/13 A2990 RMK AO2 SLP124 T02110133
TAF: KLGB 011140Z 0112/0212 15004KT P6SM OVC028 FM012000 19008KT P6SM SKC FM020000 30007KT P6SM SKC FM020600 VRB03KT P6SM OVC020
Voir NOTAMs / SUP AIP / TFR affectant cet aéroport [VIEW]
Fréquences de communication: [VIEW]

Pistes:

Coordonnées de l'aéroport

Adresse: Lakewood United States

Vue satellite de 50CL